createdAt,value
2018-10-16T00:01:15.043Z,15.20
2018-10-16T00:03:42.538Z,15.20
2018-10-16T00:06:09.988Z,15.20
2018-10-16T00:08:37.435Z,15.10
2018-10-16T00:11:04.928Z,15.10
2018-10-16T00:13:32.487Z,15.20
2018-10-16T00:16:00.057Z,15.20
2018-10-16T00:18:27.522Z,15.40
2018-10-16T00:20:54.970Z,15.40
2018-10-16T00:23:22.539Z,15.40
2018-10-16T00:25:49.995Z,15.40
2018-10-16T00:28:18.611Z,15.00
2018-10-16T00:30:46.163Z,15.00
2018-10-16T00:33:13.615Z,15.00
2018-10-16T00:35:41.384Z,15.20
2018-10-16T00:38:08.988Z,15.20
2018-10-16T00:40:36.411Z,15.20
2018-10-16T00:43:04.182Z,15.10
2018-10-16T00:45:31.652Z,15.10
2018-10-16T00:47:59.104Z,15.10
2018-10-16T00:50:26.783Z,15.30
2018-10-16T00:52:55.775Z,15.30
2018-10-16T00:55:23.234Z,15.30
2018-10-16T00:57:50.691Z,15.30
2018-10-16T01:00:18.262Z,15.20
2018-10-16T01:02:45.713Z,15.20
2018-10-16T01:05:13.175Z,15.10
2018-10-16T01:07:40.738Z,15.20
2018-10-16T01:10:08.211Z,15.10
2018-10-16T01:12:36.893Z,15.00
2018-10-16T01:15:04.463Z,15.00
2018-10-16T01:17:31.911Z,15.00
2018-10-16T01:19:59.487Z,15.00
2018-10-16T01:22:26.955Z,15.00
2018-10-16T01:24:54.408Z,14.90
2018-10-16T01:29:51.929Z,14.80
2018-10-16T01:32:20.142Z,14.90
2018-10-16T01:34:47.601Z,14.90
2018-10-16T01:37:16.187Z,14.60
2018-10-16T01:39:43.671Z,14.60
2018-10-16T01:42:11.127Z,14.50
2018-10-16T01:44:38.626Z,14.50
2018-10-16T01:47:06.375Z,14.70
2018-10-16T01:49:33.842Z,14.80
2018-10-16T01:52:01.295Z,14.90
2018-10-16T01:54:28.761Z,14.80
2018-10-16T01:56:56.221Z,14.70
2018-10-16T01:59:23.692Z,14.70
2018-10-16T02:01:51.255Z,14.70
2018-10-16T02:04:18.813Z,14.70
2018-10-16T02:06:46.382Z,14.80
2018-10-16T02:09:13.840Z,14.90
2018-10-16T02:11:41.608Z,14.70
2018-10-16T02:14:09.060Z,14.70
2018-10-16T02:16:36.515Z,14.90
2018-10-16T02:19:04.000Z,14.80
2018-10-16T02:21:31.458Z,14.70
2018-10-16T02:23:58.907Z,14.80
2018-10-16T02:26:26.371Z,14.80
2018-10-16T02:28:53.826Z,14.70
2018-10-16T02:31:21.292Z,14.60
2018-10-16T02:33:48.777Z,14.50
2018-10-16T02:36:16.247Z,14.50
2018-10-16T02:38:44.830Z,14.40
2018-10-16T02:41:12.384Z,14.40
2018-10-16T02:43:39.839Z,14.50
2018-10-16T02:46:07.622Z,14.40
2018-10-16T02:48:35.097Z,14.40
2018-10-16T02:51:02.661Z,14.40
2018-10-16T02:53:30.125Z,14.40
2018-10-16T02:55:57.880Z,14.40
2018-10-16T02:58:25.449Z,14.50
2018-10-16T03:00:52.905Z,14.60
2018-10-16T03:03:20.371Z,14.60
2018-10-16T03:05:47.833Z,14.60
2018-10-16T03:08:15.285Z,14.60
2018-10-16T03:10:42.739Z,14.60
2018-10-16T03:15:40.409Z,14.40
2018-10-16T03:18:07.963Z,14.50
2018-10-16T03:20:36.663Z,14.40
2018-10-16T03:23:04.040Z,14.40
2018-10-16T03:25:31.523Z,14.30
2018-10-16T03:27:58.988Z,14.40
2018-10-16T03:30:26.461Z,14.40
2018-10-16T03:32:55.029Z,14.30
2018-10-16T03:35:22.479Z,14.30
2018-10-16T03:37:49.954Z,14.40
2018-10-16T03:40:18.543Z,14.40
2018-10-16T03:42:46.012Z,14.50
2018-10-16T03:45:14.280Z,14.30
2018-10-16T03:47:41.885Z,14.30
2018-10-16T03:50:09.333Z,14.20
2018-10-16T03:52:37.563Z,14.20
2018-10-16T03:55:05.020Z,14.20
2018-10-16T03:57:32.520Z,14.30
2018-10-16T03:59:59.976Z,14.40
2018-10-16T04:02:27.438Z,14.50
2018-10-16T04:04:56.136Z,14.60
2018-10-16T04:07:23.601Z,14.60
2018-10-16T04:09:51.054Z,14.50
2018-10-16T04:12:18.521Z,14.40
2018-10-16T04:14:46.006Z,14.40
2018-10-16T04:17:14.232Z,14.40
2018-10-16T04:19:41.699Z,14.30
2018-10-16T04:22:09.167Z,14.40
2018-10-16T04:24:36.653Z,14.40
2018-10-16T04:27:04.114Z,14.30
2018-10-16T04:29:31.595Z,14.30
2018-10-16T04:31:59.129Z,14.20
2018-10-16T04:34:26.599Z,14.20
2018-10-16T04:36:54.162Z,14.10
2018-10-16T04:51:46.955Z,14.20
2018-10-16T04:54:15.201Z,14.20
2018-10-16T04:56:42.757Z,14.20
2018-10-16T04:59:10.332Z,14.10
2018-10-16T05:01:37.784Z,14.50
2018-10-16T05:04:06.167Z,14.40
2018-10-16T05:06:34.350Z,14.30
2018-10-16T05:09:01.910Z,14.40
2018-10-16T05:11:29.372Z,14.30
2018-10-16T05:13:56.931Z,14.30
2018-10-16T05:16:24.386Z,14.30
2018-10-16T05:23:50.310Z,14.00
2018-10-16T05:26:17.835Z,14.00
2018-10-16T05:28:46.425Z,14.10
2018-10-16T05:31:13.976Z,14.00
2018-10-16T05:33:41.443Z,14.00
2018-10-16T05:36:08.896Z,14.00
2018-10-16T05:38:36.363Z,14.10
2018-10-16T05:41:03.851Z,14.10
2018-10-16T05:43:31.589Z,14.00
2018-10-16T05:45:59.079Z,14.00
2018-10-16T05:48:26.539Z,13.90
2018-10-16T05:50:54.005Z,14.00
2018-10-16T05:53:21.593Z,13.90
2018-10-16T05:55:49.116Z,13.80
2018-10-16T05:58:16.578Z,13.70
2018-10-16T06:00:44.043Z,13.80
2018-10-16T06:03:13.021Z,13.90
2018-10-16T06:05:40.557Z,13.90
2018-10-16T06:08:08.060Z,13.90
2018-10-16T06:10:36.236Z,13.80
2018-10-16T06:13:03.803Z,13.70
2018-10-16T06:18:00.260Z,13.60
2018-10-16T06:20:27.723Z,13.70
2018-10-16T06:22:55.176Z,13.80
2018-10-16T06:25:22.943Z,13.70
2018-10-16T06:27:51.580Z,14.00
2018-10-16T06:30:20.246Z,13.90
2018-10-16T06:32:47.648Z,13.80
2018-10-16T06:35:15.107Z,13.80
2018-10-16T06:37:42.576Z,13.70
2018-10-16T06:40:10.080Z,13.70
2018-10-16T06:42:37.648Z,13.60
2018-10-16T06:45:05.104Z,13.60
2018-10-16T06:47:32.604Z,13.50
2018-10-16T06:50:00.023Z,13.50
2018-10-16T06:52:27.597Z,13.40
2018-10-16T06:54:55.077Z,13.50
2018-10-16T06:57:22.618Z,13.50
2018-10-16T06:59:50.080Z,13.60
2018-10-16T07:02:17.535Z,13.50
2018-10-16T07:04:46.504Z,13.50
2018-10-16T07:07:14.137Z,13.50
2018-10-16T07:09:41.466Z,13.50
2018-10-16T07:12:09.236Z,13.40
2018-10-16T07:14:36.687Z,13.50
2018-10-16T07:17:04.261Z,13.50
2018-10-16T07:19:31.735Z,13.60
2018-10-16T07:21:59.196Z,13.60
2018-10-16T07:24:26.744Z,13.60
2018-10-16T07:26:54.308Z,13.60
2018-10-16T07:29:21.878Z,13.60
2018-10-16T07:31:49.375Z,13.60
2018-10-16T07:34:17.613Z,13.60
2018-10-16T07:36:45.189Z,13.60
2018-10-16T07:39:12.660Z,13.70
2018-10-16T07:41:40.202Z,13.80
2018-10-16T07:44:07.666Z,13.80
2018-10-16T07:46:35.125Z,13.80
2018-10-16T07:49:02.702Z,13.90
2018-10-16T07:51:30.153Z,14.00
2018-10-16T07:53:58.757Z,14.30
2018-10-16T07:56:26.217Z,14.30
2018-10-16T07:58:53.681Z,14.40
2018-10-16T08:01:21.242Z,14.60
2018-10-16T08:03:48.801Z,14.70
2018-10-16T08:06:16.258Z,14.90
2018-10-16T08:08:44.009Z,15.20
2018-10-16T08:11:11.497Z,15.20
2018-10-16T08:13:38.962Z,15.30
2018-10-16T08:16:06.430Z,15.30
2018-10-16T08:18:33.980Z,15.30
2018-10-16T08:21:01.543Z,15.30
2018-10-16T08:23:29.113Z,15.40
2018-10-16T08:25:56.574Z,15.40
2018-10-16T08:28:24.037Z,15.40
2018-10-16T08:30:51.499Z,15.50
2018-10-16T08:33:18.970Z,15.50
2018-10-16T08:35:47.958Z,15.80
2018-10-16T08:38:15.407Z,15.80
2018-10-16T08:40:42.900Z,15.80
2018-10-16T08:43:10.450Z,15.90
2018-10-16T08:49:01.279Z,16.00
2018-10-16T08:51:29.525Z,16.20
2018-10-16T08:53:57.044Z,16.10
2018-10-16T08:56:25.676Z,16.50
2018-10-16T08:58:54.367Z,16.60
2018-10-16T09:01:22.239Z,16.60
2018-10-16T09:03:49.691Z,16.70
2018-10-16T09:06:17.272Z,16.50
2018-10-16T09:08:44.748Z,16.30
2018-10-16T09:11:12.303Z,16.30
2018-10-16T09:13:39.789Z,16.30
2018-10-16T09:16:08.025Z,17.00
2018-10-16T09:18:35.473Z,17.00
2018-10-16T09:21:02.944Z,17.30
2018-10-16T09:26:00.480Z,18.10
2018-10-16T09:28:29.075Z,18.30
2018-10-16T09:30:56.580Z,18.30
2018-10-16T09:33:24.052Z,18.00
2018-10-16T09:35:51.521Z,17.60
2018-10-16T09:38:19.282Z,17.40
2018-10-16T09:40:46.851Z,17.60
2018-10-16T09:43:15.460Z,18.50
2018-10-16T09:45:44.063Z,18.60
2018-10-16T09:48:12.651Z,19.10
2018-10-16T09:50:40.886Z,19.20
2018-10-16T09:53:08.352Z,19.20
2018-10-16T09:55:35.812Z,19.50
2018-10-16T09:58:04.499Z,19.80
2018-10-16T10:00:32.282Z,19.70
2018-10-16T10:02:59.736Z,19.90
2018-10-16T10:05:28.487Z,20.30
2018-10-16T10:07:56.296Z,20.20
2018-10-16T10:10:24.884Z,20.60
2018-10-16T10:12:52.345Z,20.60
2018-10-16T10:15:21.037Z,20.70
2018-10-16T10:17:49.651Z,20.80
2018-10-16T10:20:17.099Z,20.80
2018-10-16T10:22:44.662Z,20.90
2018-10-16T10:25:13.381Z,21.10
2018-10-16T10:27:40.914Z,21.10
2018-10-16T10:30:08.472Z,21.10
2018-10-16T10:32:36.035Z,21.30
2018-10-16T10:35:03.493Z,21.30
2018-10-16T10:37:31.215Z,21.40
2018-10-16T10:39:58.793Z,21.60
2018-10-16T10:42:26.293Z,21.40
2018-10-16T10:44:53.772Z,21.60
2018-10-16T10:47:21.226Z,21.40
2018-10-16T10:49:48.845Z,21.00
2018-10-16T10:52:16.350Z,20.90
2018-10-16T10:54:44.952Z,21.40
2018-10-16T10:57:12.488Z,21.40
2018-10-16T10:59:41.021Z,21.80
2018-10-16T11:02:09.683Z,21.90
2018-10-16T11:04:37.907Z,22.00
2018-10-16T11:07:06.553Z,22.10
2018-10-16T11:09:35.161Z,22.20
2018-10-16T11:12:03.420Z,22.20
2018-10-16T11:14:30.891Z,22.20
2018-10-16T11:16:58.445Z,22.40
2018-10-16T11:19:25.918Z,22.30
2018-10-16T11:21:53.465Z,22.10
2018-10-16T11:24:21.019Z,22.10
2018-10-16T11:26:48.591Z,22.10
2018-10-16T11:29:16.152Z,22.20
2018-10-16T11:31:43.725Z,22.20
2018-10-16T11:34:11.284Z,22.30
2018-10-16T11:36:38.743Z,22.50
2018-10-16T11:39:06.264Z,22.50
2018-10-16T11:41:33.682Z,22.40
2018-10-16T11:44:02.373Z,21.80
2018-10-16T11:46:30.135Z,21.80
2018-10-16T11:48:57.589Z,21.80
2018-10-16T11:51:25.060Z,22.00
2018-10-16T11:53:54.369Z,22.30
2018-10-16T11:56:21.828Z,22.20
2018-10-16T11:58:50.520Z,22.20
2018-10-16T12:01:18.076Z,22.20
2018-10-16T12:03:46.355Z,22.30
2018-10-16T12:06:13.954Z,22.30
2018-10-16T12:08:41.389Z,22.40
2018-10-16T12:11:08.921Z,22.40
2018-10-16T12:13:36.313Z,22.40
2018-10-16T12:16:04.821Z,22.50
2018-10-16T12:18:33.041Z,22.40
2018-10-16T12:21:00.582Z,22.40
2018-10-16T12:23:28.048Z,22.30
2018-10-16T12:25:55.885Z,22.00
2018-10-16T12:28:24.495Z,21.60
2018-10-16T12:30:52.735Z,21.50
2018-10-16T12:33:20.205Z,21.40
2018-10-16T12:35:47.667Z,21.20
2018-10-16T12:38:15.134Z,21.00
2018-10-16T12:40:42.584Z,21.10
2018-10-16T12:43:10.095Z,21.10
2018-10-16T12:45:37.531Z,21.00
2018-10-16T12:48:05.019Z,21.00
2018-10-16T12:50:34.169Z,21.00
2018-10-16T12:53:02.785Z,20.90
2018-10-16T12:55:30.331Z,20.90
2018-10-16T12:57:57.897Z,20.90
2018-10-16T13:00:25.459Z,20.90
2018-10-16T13:02:52.961Z,20.80
2018-10-16T13:05:20.408Z,20.70
2018-10-16T13:07:48.628Z,20.60
2018-10-16T13:10:16.127Z,20.60
2018-10-16T13:12:43.584Z,20.60
2018-10-16T13:15:11.159Z,20.60
2018-10-16T13:17:38.603Z,20.50
2018-10-16T13:20:06.136Z,20.60
2018-10-16T13:22:33.547Z,20.60
2018-10-16T13:25:01.103Z,20.50
2018-10-16T13:27:28.675Z,20.60
2018-10-16T13:29:56.194Z,20.50
2018-10-16T13:32:23.605Z,20.40
2018-10-16T13:34:51.184Z,20.40
2018-10-16T13:37:18.719Z,20.40
2018-10-16T13:39:46.228Z,20.50
2018-10-16T13:42:14.501Z,20.40
2018-10-16T13:44:42.816Z,20.40
2018-10-16T13:47:10.309Z,20.40
2018-10-16T13:49:37.818Z,20.30
2018-10-16T13:52:06.147Z,20.30
2018-10-16T13:54:34.053Z,20.30
2018-10-16T13:57:01.594Z,20.30
2018-10-16T13:59:29.047Z,20.20
2018-10-16T14:01:56.603Z,20.20
2018-10-16T14:04:24.060Z,20.20
2018-10-16T14:06:51.585Z,20.20
2018-10-16T14:09:19.866Z,20.10
2018-10-16T14:11:48.084Z,20.00
2018-10-16T14:14:16.816Z,20.00
2018-10-16T14:16:44.344Z,20.00
2018-10-16T14:19:12.568Z,19.90
2018-10-16T14:21:40.816Z,19.80
2018-10-16T14:24:08.293Z,19.80
2018-10-16T14:26:35.836Z,19.80
2018-10-16T14:29:03.222Z,19.90
2018-10-16T14:31:30.841Z,19.80
2018-10-16T14:33:58.449Z,19.70
2018-10-16T14:36:25.813Z,19.80
2018-10-16T14:38:53.284Z,19.80
2018-10-16T14:41:20.823Z,19.80
2018-10-16T14:43:48.385Z,19.70
2018-10-16T14:46:16.035Z,19.70
2018-10-16T14:48:44.209Z,19.70
2018-10-16T14:51:11.671Z,19.70
2018-10-16T14:53:39.156Z,19.60
2018-10-16T14:56:07.455Z,19.60
2018-10-16T14:58:34.885Z,19.60
2018-10-16T15:01:03.704Z,19.50
2018-10-16T15:03:31.195Z,19.50
2018-10-16T15:08:27.619Z,19.30
2018-10-16T15:10:56.215Z,19.30
2018-10-16T15:13:23.677Z,19.30
2018-10-16T15:15:51.231Z,19.30
2018-10-16T15:18:18.699Z,19.30
2018-10-16T15:20:46.163Z,19.40
2018-10-16T15:23:13.624Z,19.40
2018-10-16T15:25:41.205Z,19.40
2018-10-16T15:28:09.525Z,19.20
2018-10-16T15:30:36.926Z,19.20
2018-10-16T15:33:05.911Z,19.00
2018-10-16T15:35:33.389Z,19.10
2018-10-16T15:38:00.948Z,19.10
2018-10-16T15:40:28.424Z,19.00
2018-10-16T15:42:56.696Z,19.00
2018-10-16T15:45:25.687Z,18.90
2018-10-16T15:47:53.213Z,18.90
2018-10-16T15:50:20.692Z,18.90
2018-10-16T15:52:48.755Z,18.90
2018-10-16T15:55:17.364Z,18.90
2018-10-16T15:57:44.901Z,18.90
2018-10-16T16:00:12.402Z,18.90
2018-10-16T16:02:40.060Z,18.90
2018-10-16T16:05:07.533Z,18.90
2018-10-16T16:07:34.975Z,18.90
2018-10-16T16:10:02.598Z,18.90
2018-10-16T16:12:30.034Z,18.90
2018-10-16T16:14:57.468Z,18.90
2018-10-16T16:17:25.047Z,18.80
2018-10-16T16:19:52.511Z,18.80
2018-10-16T16:22:19.976Z,18.90
2018-10-16T16:24:47.531Z,18.90
2018-10-16T16:27:15.090Z,18.80
2018-10-16T16:29:42.572Z,18.80
2018-10-16T16:32:10.206Z,18.80
2018-10-16T16:34:38.744Z,18.70
2018-10-16T16:42:05.280Z,18.60
2018-10-16T16:44:33.919Z,18.50
2018-10-16T16:47:02.498Z,18.50
2018-10-16T16:49:31.166Z,18.40
2018-10-16T16:51:58.697Z,18.40
2018-10-16T16:54:26.953Z,18.20
2018-10-16T16:56:55.283Z,18.10
2018-10-16T16:59:22.769Z,18.10
2018-10-16T17:01:50.214Z,18.10
2018-10-16T17:04:17.782Z,18.10
2018-10-16T17:06:45.229Z,18.00
2018-10-16T17:09:12.683Z,18.10
2018-10-16T17:11:40.146Z,18.00
2018-10-16T17:14:07.688Z,17.90
2018-10-16T17:16:36.240Z,17.80
2018-10-16T17:19:04.495Z,17.90
2018-10-16T17:26:34.471Z,17.70
2018-10-16T17:29:01.907Z,17.70
2018-10-16T17:31:29.369Z,17.70
2018-10-16T17:33:57.976Z,17.40
2018-10-16T17:36:25.416Z,17.40
2018-10-16T17:38:52.921Z,17.30
2018-10-16T17:41:20.349Z,17.30
2018-10-16T17:43:47.818Z,17.20
2018-10-16T17:46:15.288Z,17.10
2018-10-16T17:48:42.848Z,17.10
2018-10-16T17:51:11.582Z,17.10
2018-10-16T17:53:39.088Z,17.10
2018-10-16T17:56:06.647Z,17.10
2018-10-16T17:58:34.119Z,17.10
2018-10-16T18:01:01.573Z,17.10
2018-10-16T18:03:29.861Z,16.90
2018-10-16T18:05:57.457Z,16.90
2018-10-16T18:08:25.707Z,17.00
2018-10-16T18:10:53.176Z,17.00
2018-10-16T18:13:20.635Z,17.20
2018-10-16T18:15:48.196Z,16.80
2018-10-16T18:20:45.324Z,16.60
2018-10-16T18:23:12.777Z,16.50
2018-10-16T18:25:40.299Z,16.60
2018-10-16T18:28:07.756Z,16.40
2018-10-16T18:30:35.211Z,16.30
2018-10-16T18:33:02.838Z,16.30
2018-10-16T18:35:30.239Z,16.40
2018-10-16T18:37:57.700Z,16.50
2018-10-16T18:40:25.192Z,16.50
2018-10-16T18:42:53.408Z,16.50
2018-10-16T18:45:20.921Z,16.50
2018-10-16T18:47:48.379Z,16.40
2018-10-16T18:50:15.835Z,16.40
2018-10-16T18:52:43.292Z,16.40
2018-10-16T18:55:10.767Z,16.20
2018-10-16T18:57:38.323Z,16.30
2018-10-16T19:00:05.773Z,16.20
2018-10-16T19:02:34.480Z,16.00
2018-10-16T19:05:02.706Z,16.20
2018-10-16T19:07:30.216Z,16.20
2018-10-16T19:09:57.798Z,16.20
2018-10-16T19:12:25.282Z,16.10
2018-10-16T19:14:53.545Z,16.30
2018-10-16T19:17:21.131Z,16.20
2018-10-16T19:19:49.953Z,16.40
2018-10-16T19:22:17.458Z,16.30
2018-10-16T19:24:44.977Z,16.20
2018-10-16T19:27:12.496Z,16.20
2018-10-16T19:29:41.089Z,15.90
2018-10-16T19:32:09.366Z,15.90
2018-10-16T19:34:38.056Z,15.90
2018-10-16T19:37:05.606Z,15.90
2018-10-16T19:39:33.103Z,15.90
2018-10-16T19:42:01.701Z,15.80
2018-10-16T19:44:29.215Z,15.80
2018-10-16T19:46:56.778Z,15.80
2018-10-16T19:49:24.346Z,15.50
2018-10-16T19:51:51.798Z,15.50
2018-10-16T19:54:19.379Z,15.60
2018-10-16T19:56:46.830Z,15.80
2018-10-16T19:59:14.408Z,16.00
2018-10-16T20:01:41.956Z,16.10
2018-10-16T20:04:09.424Z,16.00
2018-10-16T20:06:36.991Z,15.90
2018-10-16T20:09:04.472Z,15.70
2018-10-16T20:11:33.042Z,15.60
2018-10-16T20:14:00.514Z,15.60
2018-10-16T20:16:28.059Z,15.50
2018-10-16T20:18:55.536Z,15.60
2018-10-16T20:21:22.996Z,15.70
2018-10-16T20:23:50.554Z,15.80
2018-10-16T20:26:18.804Z,16.00
2018-10-16T20:28:46.260Z,16.00
2018-10-16T20:31:13.766Z,16.20
2018-10-16T20:33:42.437Z,16.30
2018-10-16T20:36:09.900Z,16.30
2018-10-16T20:38:37.467Z,16.40
2018-10-16T20:41:05.043Z,16.40
2018-10-16T20:43:32.508Z,16.40
2018-10-16T20:45:59.983Z,16.40
2018-10-16T20:48:27.535Z,16.50
2018-10-16T20:50:54.999Z,16.50
2018-10-16T20:53:22.461Z,16.50
2018-10-16T20:55:50.012Z,16.50
2018-10-16T20:58:17.572Z,16.60
2018-10-16T21:00:45.046Z,16.70
2018-10-16T21:03:12.498Z,16.70
2018-10-16T21:05:41.115Z,16.70
2018-10-16T21:08:10.208Z,16.70
2018-10-16T21:10:37.664Z,16.70
2018-10-16T21:13:05.150Z,16.70
2018-10-16T21:15:32.682Z,16.80
2018-10-16T21:18:00.138Z,16.80
2018-10-16T21:20:27.699Z,16.80
2018-10-16T21:22:55.321Z,16.80
2018-10-16T21:25:22.737Z,16.80
2018-10-16T21:27:50.185Z,16.70
2018-10-16T21:30:17.639Z,16.80
2018-10-16T21:32:45.117Z,16.70
2018-10-16T21:35:12.679Z,16.70
2018-10-16T21:37:40.140Z,16.70
2018-10-16T21:40:07.591Z,16.70
2018-10-16T21:42:35.058Z,16.70
2018-10-16T21:45:02.511Z,16.70
2018-10-16T21:47:29.963Z,16.70
2018-10-16T21:49:57.734Z,16.60
2018-10-16T21:52:25.218Z,16.70
2018-10-16T21:54:52.681Z,16.60
2018-10-16T21:57:20.131Z,16.70
2018-10-16T21:59:47.596Z,16.70
2018-10-16T22:02:15.050Z,16.60
2018-10-16T22:04:42.530Z,16.50
2018-10-16T22:07:10.196Z,16.50
2018-10-16T22:09:37.654Z,16.50
2018-10-16T22:12:05.132Z,16.50
2018-10-16T22:14:32.691Z,16.50
2018-10-16T22:17:00.248Z,16.50
2018-10-16T22:19:27.695Z,16.50
2018-10-16T22:21:55.168Z,16.40
2018-10-16T22:24:22.625Z,16.40
2018-10-16T22:26:50.101Z,16.40
2018-10-16T22:29:17.665Z,16.30
2018-10-16T22:31:45.120Z,16.30
2018-10-16T22:34:12.572Z,16.30
2018-10-16T22:36:40.057Z,16.20
2018-10-16T22:39:07.613Z,16.10
2018-10-16T22:41:35.066Z,16.10
2018-10-16T22:44:02.523Z,16.10
2018-10-16T22:46:30.003Z,16.10
2018-10-16T22:48:57.513Z,16.00
2018-10-16T22:51:24.933Z,16.00
2018-10-16T22:53:52.392Z,16.00
2018-10-16T22:56:19.848Z,16.00
2018-10-16T22:58:47.295Z,16.00
2018-10-16T23:01:15.992Z,15.80
2018-10-16T23:03:43.576Z,15.80
2018-10-16T23:06:11.029Z,15.60
2018-10-16T23:08:38.596Z,15.60
2018-10-16T23:11:06.190Z,15.60
2018-10-16T23:13:33.605Z,15.60
2018-10-16T23:16:01.181Z,15.70
2018-10-16T23:18:28.637Z,15.70
2018-10-16T23:20:57.241Z,15.60
2018-10-16T23:23:25.833Z,15.60
2018-10-16T23:25:53.290Z,15.50
2018-10-16T23:28:21.891Z,15.30
2018-10-16T23:30:49.436Z,15.30
2018-10-16T23:33:16.892Z,15.30
2018-10-16T23:35:44.461Z,15.20
2018-10-16T23:38:11.944Z,15.20
2018-10-16T23:40:39.493Z,15.10
2018-10-16T23:43:06.991Z,15.00
2018-10-16T23:45:34.428Z,15.00
2018-10-16T23:48:01.856Z,15.00
2018-10-16T23:50:29.313Z,15.00
2018-10-16T23:52:56.825Z,14.90
2018-10-16T23:55:24.360Z,14.80
2018-10-16T23:57:51.924Z,14.80
